Time;durP1;ratioP1;P1;durP2;ratioP2;P2;SDS_P1;SDS_P2;PMS_P1;PMS_P2;Temp;Humidity;BMP_temperature;BMP_pressure;BME280_temperature;BME280_humidity;BME280_pressure;Samples;Min_cycle;Max_cycle;Signal;HPM_P1;HPM_P2
2021/08/26 00:06:59;;;;;;;6.10;4.00;;;;;;;13.57;68.13;96035.48;1768123;80;20996;-81
2021/08/26 00:09:25;;;;;;;7.47;4.03;;;;;;;13.58;68.12;96024.54;1742087;80;21016;-81
2021/08/26 00:11:55;;;;;;;6.62;4.58;;;;;;;13.57;68.73;96034.19;1739334;80;20913;-81
2021/08/26 00:14:23;;;;;;;5.95;3.87;;;;;;;13.56;69.48;96032.58;1738555;80;21061;-81
2021/08/26 00:16:48;;;;;;;6.45;4.78;;;;;;;13.52;69.44;96015.75;1743348;81;21325;-81
2021/08/26 00:19:14;;;;;;;7.72;5.08;;;;;;;13.52;68.19;96024.88;1738714;81;21048;-81
2021/08/26 00:21:41;;;;;;;7.62;4.28;;;;;;;13.55;68.40;96021.05;1777535;79;20974;-82
2021/08/26 00:24:08;;;;;;;7.05;4.62;;;;;;;13.55;67.78;96017.13;1770492;80;21351;-81
2021/08/26 00:26:33;;;;;;;5.72;4.05;;;;;;;13.61;67.83;96021.51;1747255;80;21022;-81
2021/08/26 00:29:04;;;;;;;5.85;3.83;;;;;;;13.60;69.03;96015.48;1767837;80;21020;-81
2021/08/26 00:31:30;;;;;;;7.20;4.40;;;;;;;13.57;67.56;96013.80;1774634;80;20976;-81
2021/08/26 00:33:55;;;;;;;7.42;5.00;;;;;;;13.58;67.98;96010.19;1772580;79;20964;-81
2021/08/26 00:36:22;;;;;;;8.78;4.28;;;;;;;13.55;67.36;96000.97;1766144;79;21006;-81
2021/08/26 00:38:48;;;;;;;8.20;4.62;;;;;;;13.58;67.71;96002.35;1770480;80;20951;-81
2021/08/26 00:41:27;;;;;;;5.45;3.40;;;;;;;13.60;68.53;95994.60;1769658;79;21415;-81
2021/08/26 00:43:53;;;;;;;6.62;3.77;;;;;;;13.61;67.06;95993.59;1771631;80;21013;-81
2021/08/26 00:46:18;;;;;;;5.30;4.05;;;;;;;13.68;67.30;95986.53;1773866;79;21035;-81
2021/08/26 00:48:44;;;;;;;5.40;3.42;;;;;;;13.65;67.22;95969.16;1775070;80;21033;-81
2021/08/26 00:51:12;;;;;;;6.55;3.87;;;;;;;13.76;66.36;95982.35;1772822;80;21083;-81
2021/08/26 00:53:39;;;;;;;5.80;3.75;;;;;;;13.81;66.67;95982.51;1775802;80;20974;-81
2021/08/26 00:56:08;;;;;;;5.30;3.58;;;;;;;13.81;66.60;95982.51;1778466;80;21350;-81
2021/08/26 00:58:34;;;;;;;6.20;4.35;;;;;;;13.81;66.88;95977.29;1774669;79;21541;-81
2021/08/26 01:01:03;;;;;;;6.60;4.00;;;;;;;13.78;67.62;95976.41;1775385;79;21015;-81
2021/08/26 01:03:43;;;;;;;6.15;3.75;;;;;;;13.73;67.49;95963.70;1774786;80;21004;-81
2021/08/26 01:06:17;;;;;;;6.67;4.03;;;;;;;13.68;67.40;95969.56;1737265;80;21065;-81
2021/08/26 01:08:58;;;;;;;6.00;4.22;;;;;;;13.71;66.39;95956.09;1736840;82;21352;-81
2021/08/26 01:11:23;;;;;;;6.67;3.98;;;;;;;13.78;67.33;95959.95;1734671;80;21376;-81
2021/08/26 01:13:51;;;;;;;6.33;3.55;;;;;;;13.81;67.37;95956.39;1747633;80;20957;-81
2021/08/26 01:16:16;;;;;;;6.30;4.20;;;;;;;13.84;67.06;95955.20;1759762;80;22452;-81
2021/08/26 01:18:46;;;;;;;5.47;3.90;;;;;;;13.87;66.37;95956.58;1799279;78;20902;-81
2021/08/26 01:21:14;;;;;;;8.73;4.10;;;;;;;13.91;66.28;95953.83;1794049;78;21032;-81
2021/08/26 01:23:43;;;;;;;5.17;3.65;;;;;;;13.94;65.97;95950.79;1808781;78;21014;-81
2021/08/26 01:26:16;;;;;;;6.47;4.35;;;;;;;13.99;66.92;95949.63;1798428;78;21000;-81
2021/08/26 01:28:42;;;;;;;6.42;3.77;;;;;;;13.97;66.97;95951.66;1797815;78;21292;-81
2021/08/26 01:31:08;;;;;;;6.75;4.12;;;;;;;13.93;66.41;95949.19;1792995;78;20980;-81
2021/08/26 01:33:33;;;;;;;5.33;3.87;;;;;;;13.97;65.72;95949.05;1792802;78;20960;-81
2021/08/26 01:36:01;;;;;;;7.78;4.17;;;;;;;14.07;65.77;95942.34;1792495;78;21512;-81
2021/08/26 01:38:27;;;;;;;4.35;3.55;;;;;;;14.17;65.33;95935.34;1799181;78;20977;-81
2021/08/26 01:40:53;;;;;;;7.17;4.30;;;;;;;14.24;65.47;95933.97;1771029;80;21326;-81
2021/08/26 01:43:19;;;;;;;5.60;3.65;;;;;;;14.30;64.47;95939.63;1772596;80;21002;-81
2021/08/26 01:45:46;;;;;;;6.45;4.10;;;;;;;14.34;64.78;95935.08;1772532;80;21006;-81
2021/08/26 01:48:14;;;;;;;9.00;4.17;;;;;;;14.38;64.47;95926.29;1803850;78;20964;-81
2021/08/26 01:50:40;;;;;;;7.30;4.22;;;;;;;14.39;64.36;95934.42;1797184;78;21005;-81
2021/08/26 01:53:06;;;;;;;6.47;4.00;;;;;;;14.35;64.67;95923.61;1794965;78;21039;-81
2021/08/26 01:55:32;;;;;;;6.97;4.40;;;;;;;14.39;64.47;95920.05;1804672;78;21259;-81
2021/08/26 01:57:59;;;;;;;6.22;3.92;;;;;;;14.38;64.14;95910.61;1801856;78;20954;-81
2021/08/26 02:00:25;;;;;;;5.37;3.77;;;;;;;14.37;63.66;95912.42;1799466;78;21091;-81
2021/08/26 02:02:51;;;;;;;6.15;3.98;;;;;;;14.37;64.01;95908.51;1803322;78;20981;-82
2021/08/26 02:05:16;;;;;;;7.75;4.08;;;;;;;14.36;64.02;95906.91;1806146;78;20956;-81
2021/08/26 02:07:49;;;;;;;6.20;3.90;;;;;;;14.35;63.91;95900.59;1800993;78;21426;-81
2021/08/26 02:10:15;;;;;;;6.15;4.08;;;;;;;14.36;63.81;95889.12;1799664;78;21037;-81
2021/08/26 02:12:41;;;;;;;5.28;3.90;;;;;;;14.36;63.80;95883.39;1796689;77;21472;-81
2021/08/26 02:15:08;;;;;;;4.95;3.50;;;;;;;14.37;63.47;95874.53;1797213;78;21006;-81
2021/08/26 02:17:33;;;;;;;6.28;3.83;;;;;;;14.39;63.74;95873.00;1797432;78;21004;-81
2021/08/26 02:20:00;;;;;;;6.45;4.03;;;;;;;14.42;63.93;95871.25;1803023;78;20901;-81
2021/08/26 02:22:25;;;;;;;5.17;3.27;;;;;;;14.43;63.88;95879.38;1796750;78;21025;-81
2021/08/26 02:24:51;;;;;;;6.05;3.65;;;;;;;14.44;63.96;95870.55;1796376;78;21044;-82
2021/08/26 02:27:17;;;;;;;6.08;3.65;;;;;;;14.43;63.81;95870.23;1804092;77;21019;-81
2021/08/26 02:29:42;;;;;;;6.95;3.92;;;;;;;14.44;63.90;95864.02;1778383;79;20971;-81
2021/08/26 02:32:08;;;;;;;6.25;4.55;;;;;;;14.48;63.77;95866.98;1805176;78;21024;-81
2021/08/26 02:34:34;;;;;;;5.40;3.80;;;;;;;14.48;63.62;95859.15;1805498;78;20972;-81
2021/08/26 02:37:00;;;;;;;5.35;3.80;;;;;;;14.47;63.67;95860.97;1801213;78;20952;-81
2021/08/26 02:39:25;;;;;;;7.03;3.80;;;;;;;14.48;63.75;95855.23;1801983;78;22024;-81
2021/08/26 02:41:51;;;;;;;7.25;3.80;;;;;;;14.50;63.35;95851.41;1800759;78;20957;-81
2021/08/26 02:44:17;;;;;;;7.22;4.03;;;;;;;14.51;63.41;95847.77;1800034;78;20922;-81
2021/08/26 02:46:42;;;;;;;5.92;3.65;;;;;;;14.52;63.40;95846.75;1799317;78;21311;-81
2021/08/26 02:49:08;;;;;;;6.58;4.30;;;;;;;14.54;63.24;95842.09;1795779;78;20974;-81
2021/08/26 02:51:34;;;;;;;5.80;4.00;;;;;;;14.56;62.98;95846.59;1799391;78;20996;-81
2021/08/26 02:54:01;;;;;;;5.22;3.67;;;;;;;14.55;63.14;95842.39;1798378;78;20985;-81
2021/08/26 02:56:26;;;;;;;4.65;2.92;;;;;;;14.54;62.86;95839.99;1798210;78;21335;-81
2021/08/26 02:58:52;;;;;;;5.00;3.30;;;;;;;14.54;62.31;95832.16;1801675;78;20949;-81
2021/08/26 03:01:18;;;;;;;5.20;3.08;;;;;;;14.57;62.80;95835.62;1779211;78;20996;-81
2021/08/26 03:03:44;;;;;;;5.47;3.67;;;;;;;14.57;62.72;95833.81;1792673;78;21426;-81
2021/08/26 03:06:09;;;;;;;7.83;4.87;;;;;;;14.57;62.09;95829.09;1771600;79;20917;-82
2021/08/26 03:08:35;;;;;;;6.45;3.40;;;;;;;14.57;62.30;95828.58;1774466;79;21011;-82
2021/08/26 03:11:01;;;;;;;5.45;3.75;;;;;;;14.58;62.30;95825.45;1776646;79;20985;-81
2021/08/26 03:13:27;;;;;;;4.12;3.47;;;;;;;14.57;62.64;95829.89;1777254;80;20967;-81
2021/08/26 03:15:52;;;;;;;6.55;4.05;;;;;;;14.56;62.58;95820.96;1774738;80;20939;-81
2021/08/26 03:18:18;;;;;;;5.40;3.72;;;;;;;14.56;62.70;95825.68;1752766;80;21338;-81
2021/08/26 03:20:44;;;;;;;6.85;4.20;;;;;;;14.56;62.31;95818.34;1774788;80;20966;-81
2021/08/26 03:23:11;;;;;;;6.65;4.83;;;;;;;14.53;62.64;95818.28;1801968;78;20984;-81
2021/08/26 03:25:37;;;;;;;7.15;4.83;;;;;;;14.49;62.85;95822.36;1809855;78;21420;-82
2021/08/26 03:28:03;;;;;;;6.28;4.30;;;;;;;14.47;62.55;95828.80;1796902;78;20990;-82
2021/08/26 03:30:29;;;;;;;5.78;4.12;;;;;;;14.45;62.78;95822.48;1795937;78;21035;-82
2021/08/26 03:32:55;;;;;;;6.97;4.50;;;;;;;14.43;62.65;95820.57;1796116;78;21080;-81
2021/08/26 03:35:20;;;;;;;8.00;4.40;;;;;;;14.41;62.34;95827.33;1801244;78;20893;-81
2021/08/26 03:37:46;;;;;;;6.33;4.58;;;;;;;14.41;62.49;95810.84;1782947;78;20934;-81
2021/08/26 03:40:12;;;;;;;7.55;4.65;;;;;;;14.39;62.75;95808.97;1797413;78;21558;-81
2021/08/26 03:42:38;;;;;;;7.78;4.80;;;;;;;14.38;63.04;95805.56;1793707;78;21449;-81
2021/08/26 03:45:04;;;;;;;5.75;4.17;;;;;;;14.37;62.85;95816.23;1802849;78;20974;-81
2021/08/26 03:47:30;;;;;;;7.65;4.80;;;;;;;14.34;63.05;95803.61;1798332;78;20941;-81
2021/08/26 03:49:56;;;;;;;6.62;4.00;;;;;;;14.32;62.91;95805.14;1802134;78;21399;-81
2021/08/26 03:52:21;;;;;;;6.08;4.28;;;;;;;14.32;63.21;95808.26;1794867;78;21015;-81
2021/08/26 03:54:48;;;;;;;8.50;4.25;;;;;;;14.31;63.70;95799.59;1772595;78;20956;-81
2021/08/26 03:57:13;;;;;;;7.80;4.78;;;;;;;14.35;63.09;95805.20;1805074;78;20973;-81
2021/08/26 03:59:39;;;;;;;6.15;4.30;;;;;;;14.32;63.09;95793.89;1797092;78;20922;-82
2021/08/26 04:02:05;;;;;;;6.50;4.67;;;;;;;14.44;63.11;95799.98;1798254;78;20961;-81
2021/08/26 04:04:31;;;;;;;8.18;4.50;;;;;;;14.47;63.33;95799.53;1792456;78;20960;-81
2021/08/26 04:06:58;;;;;;;7.80;4.30;;;;;;;14.49;63.34;95799.34;1803454;78;21058;-81
2021/08/26 04:09:24;;;;;;;5.67;3.92;;;;;;;14.47;63.47;95792.20;1797934;78;21608;-82
2021/08/26 04:11:49;;;;;;;5.75;4.42;;;;;;;14.47;63.88;95784.36;1803302;78;20935;-81
2021/08/26 04:14:15;;;;;;;6.15;4.37;;;;;;;14.46;64.62;95783.56;1799271;78;21307;-81
2021/08/26 04:16:41;;;;;;;6.30;4.17;;;;;;;14.45;64.45;95786.41;1796301;78;21367;-81
2021/08/26 04:19:06;;;;;;;5.70;4.37;;;;;;;14.43;64.28;95781.37;1802541;78;20957;-81
2021/08/26 04:21:33;;;;;;;7.35;4.37;;;;;;;14.41;65.48;95780.28;1793167;78;20949;-81
2021/08/26 04:23:59;;;;;;;7.83;3.98;;;;;;;14.40;65.10;95776.59;1803698;78;20917;-81
2021/08/26 04:26:25;;;;;;;5.97;4.72;;;;;;;14.40;64.72;95772.66;1795281;78;21067;-81
2021/08/26 04:28:50;;;;;;;7.15;4.92;;;;;;;14.42;64.95;95776.65;1797411;78;21009;-81
2021/08/26 04:31:16;;;;;;;6.55;4.15;;;;;;;14.42;64.76;95768.81;1807081;78;20948;-81
2021/08/26 04:33:42;;;;;;;7.37;5.28;;;;;;;14.44;64.75;95771.23;1754400;80;21342;-81
2021/08/26 04:36:08;;;;;;;6.10;3.58;;;;;;;14.45;64.45;95768.11;1772989;80;21103;-81
2021/08/26 04:38:34;;;;;;;8.30;4.85;;;;;;;14.45;63.98;95766.29;1769541;80;21426;-81
2021/08/26 04:41:00;;;;;;;10.58;5.03;;;;;;;14.44;64.36;95766.52;1771156;80;21472;-81
2021/08/26 04:43:26;;;;;;;6.00;4.00;;;;;;;14.45;64.24;95768.91;1768216;80;20996;-81
2021/08/26 04:45:51;;;;;;;8.38;4.75;;;;;;;14.45;63.99;95766.80;1776532;79;20981;-81
2021/08/26 04:48:17;;;;;;;8.05;4.60;;;;;;;14.48;64.34;95772.41;1768680;80;21412;-80
2021/08/26 04:50:43;;;;;;;6.37;3.70;;;;;;;14.50;64.19;95770.87;1770456;80;21036;-81
2021/08/26 04:53:08;;;;;;;7.25;4.25;;;;;;;14.50;64.47;95771.67;1774635;80;21522;-82
2021/08/26 04:55:34;;;;;;;5.97;3.85;;;;;;;14.49;64.44;95768.77;1775629;79;21116;-81
2021/08/26 04:58:00;;;;;;;5.65;4.10;;;;;;;14.48;64.18;95770.27;1771410;80;21412;-81
2021/08/26 05:00:26;;;;;;;7.12;4.12;;;;;;;14.47;64.30;95767.38;1771659;80;20992;-81
2021/08/26 05:02:51;;;;;;;6.45;4.30;;;;;;;14.47;64.31;95762.14;1773727;80;21052;-81
2021/08/26 05:05:18;;;;;;;6.92;4.42;;;;;;;14.51;65.07;95762.81;1772779;80;21047;-81
2021/08/26 05:07:45;;;;;;;6.50;3.87;;;;;;;14.55;64.39;95756.63;1769689;80;21157;-81
2021/08/26 05:10:11;;;;;;;7.75;4.12;;;;;;;14.56;64.39;95760.33;1774355;80;21378;-81
2021/08/26 05:12:36;;;;;;;6.65;4.30;;;;;;;14.57;64.59;95752.77;1800551;78;21017;-81
2021/08/26 05:15:02;;;;;;;7.47;4.67;;;;;;;14.56;64.28;95751.17;1797337;78;20944;-81
2021/08/26 05:17:28;;;;;;;7.50;4.50;;;;;;;14.56;64.19;95750.38;1803763;78;21016;-81
2021/08/26 05:19:54;;;;;;;6.37;4.22;;;;;;;14.53;64.40;95756.84;1794429;78;21071;-81
2021/08/26 05:22:20;;;;;;;6.72;4.80;;;;;;;14.52;64.24;95759.69;1801033;78;21335;-81
2021/08/26 05:24:47;;;;;;;6.80;4.15;;;;;;;14.49;64.18;95758.31;1811946;78;20978;-81
2021/08/26 05:27:13;;;;;;;6.55;4.90;;;;;;;14.48;64.51;95767.66;1819964;78;20932;-81
2021/08/26 05:29:39;;;;;;;7.83;5.20;;;;;;;14.47;64.41;95769.98;1814505;78;20922;-81
2021/08/26 05:32:05;;;;;;;7.00;4.42;;;;;;;14.48;64.68;95765.05;1813482;78;21397;-81
2021/08/26 05:34:31;;;;;;;7.78;4.67;;;;;;;14.48;64.75;95758.03;1814719;78;20960;-81
2021/08/26 05:36:57;;;;;;;6.97;3.90;;;;;;;14.50;64.68;95751.27;1809928;78;21017;-81
2021/08/26 05:39:22;;;;;;;5.65;3.70;;;;;;;14.56;65.00;95755.09;1810591;78;21337;-81
2021/08/26 05:41:48;;;;;;;7.12;4.72;;;;;;;14.62;64.66;95756.81;1814209;78;20944;-81
2021/08/26 05:44:14;;;;;;;6.03;4.30;;;;;;;14.68;65.26;95755.14;1809917;78;21500;-81
2021/08/26 05:46:42;;;;;;;6.55;4.65;;;;;;;14.73;65.01;95756.58;1805489;78;20996;-81
2021/08/26 05:49:07;;;;;;;6.45;4.58;;;;;;;14.75;65.33;95753.22;1816083;78;21415;-82
2021/08/26 05:51:33;;;;;;;7.67;4.53;;;;;;;14.77;65.22;95753.00;1805850;78;21046;-81
2021/08/26 05:53:59;;;;;;;5.20;4.28;;;;;;;14.79;65.19;95760.91;1806484;78;20990;-81
2021/08/26 05:56:26;;;;;;;8.15;4.80;;;;;;;14.82;65.36;95755.77;1807489;78;21106;-82
2021/08/26 05:58:52;;;;;;;6.85;4.53;;;;;;;14.84;65.13;95761.56;1784523;79;20970;-81
2021/08/26 06:01:18;;;;;;;7.12;4.75;;;;;;;14.84;65.12;95762.36;1815531;78;20943;-81
2021/08/26 06:03:44;;;;;;;8.78;4.90;;;;;;;14.84;65.13;95762.36;1813102;78;21288;-80
2021/08/26 06:06:09;;;;;;;9.28;4.65;;;;;;;14.86;65.21;95764.24;1814378;78;20890;-81
2021/08/26 06:08:35;;;;;;;9.00;4.40;;;;;;;14.86;65.41;95765.55;1809419;78;20938;-81
2021/08/26 06:11:01;;;;;;;8.95;4.83;;;;;;;14.87;65.31;95765.83;1811283;78;21435;-81
2021/08/26 06:13:27;;;;;;;6.67;4.78;;;;;;;14.89;65.47;95769.02;1811777;78;20960;-81
2021/08/26 06:15:52;;;;;;;6.87;4.62;;;;;;;14.90;65.33;95774.53;1814082;78;20944;-81
2021/08/26 06:18:18;;;;;;;9.45;8.03;;;;;;;14.94;65.14;95782.73;1810073;78;20942;-80
2021/08/26 06:20:44;;;;;;;8.58;7.47;;;;;;;14.93;65.53;95779.31;1785630;79;20924;-81
2021/08/26 06:23:10;;;;;;;9.13;7.00;;;;;;;14.93;65.82;95775.39;1798689;78;21343;-81
2021/08/26 06:25:36;;;;;;;10.32;6.80;;;;;;;14.92;65.74;95777.72;1807408;78;21003;-81
2021/08/26 06:28:01;;;;;;;8.43;5.83;;;;;;;14.89;66.26;95775.56;1812840;78;20959;-81
2021/08/26 06:30:27;;;;;;;8.80;5.10;;;;;;;14.88;66.90;95770.05;1792465;78;21560;-81
2021/08/26 06:32:53;;;;;;;6.53;3.87;;;;;;;14.86;67.51;95753.78;1817574;78;21386;-80
2021/08/26 06:35:19;;;;;;;6.08;4.30;;;;;;;14.83;67.59;95755.53;1786468;78;20976;-81
2021/08/26 06:37:45;;;;;;;6.17;3.77;;;;;;;14.77;68.21;95747.26;1810448;78;21386;-80
2021/08/26 06:40:12;;;;;;;6.00;4.12;;;;;;;14.70;67.84;95747.36;1813755;78;20951;-80
2021/08/26 06:42:37;;;;;;;8.93;4.70;;;;;;;14.68;68.23;95750.71;1812384;78;20977;-81
2021/08/26 06:45:04;;;;;;;7.10;4.30;;;;;;;14.64;68.34;95741.72;1803687;79;20965;-81
2021/08/26 06:47:30;;;;;;;8.55;4.83;;;;;;;14.63;69.68;95745.84;1813716;78;21000;-81
2021/08/26 06:49:56;;;;;;;5.45;3.85;;;;;;;14.60;69.09;95739.75;1802781;78;21040;-81
2021/08/26 06:52:22;;;;;;;6.00;4.00;;;;;;;14.59;68.67;95749.42;1812582;79;20936;-80
2021/08/26 06:54:47;;;;;;;6.42;4.17;;;;;;;14.59;68.93;95746.01;1812147;78;21009;-81
2021/08/26 06:57:13;;;;;;;6.17;3.85;;;;;;;14.59;69.16;95742.08;1743952;80;21342;-80
2021/08/26 06:59:39;;;;;;;8.30;4.90;;;;;;;14.59;69.44;95744.70;1741264;81;20963;-80
2021/08/26 07:02:04;;;;;;;5.50;4.12;;;;;;;14.59;70.28;95744.19;1744705;80;20985;-80
2021/08/26 07:04:30;;;;;;;6.53;4.05;;;;;;;14.57;69.58;95742.31;1742773;80;20945;-80
2021/08/26 07:06:56;;;;;;;6.17;4.28;;;;;;;14.59;69.95;95737.66;1738676;80;21292;-80
2021/08/26 07:09:22;;;;;;;5.67;3.77;;;;;;;14.63;70.68;95741.92;1742565;80;21399;-80
2021/08/26 07:11:48;;;;;;;5.62;3.95;;;;;;;14.67;69.97;95733.94;1741590;80;20957;-81
2021/08/26 07:14:14;;;;;;;6.05;4.03;;;;;;;14.71;69.83;95740.31;1747823;80;21008;-80
2021/08/26 07:16:39;;;;;;;5.62;3.95;;;;;;;14.74;70.01;95741.17;1741594;82;21387;-81
2021/08/26 07:19:05;;;;;;;5.75;3.85;;;;;;;14.80;70.21;95735.03;1772446;79;20932;-80
2021/08/26 07:21:31;;;;;;;6.67;4.35;;;;;;;14.82;70.01;95739.56;1768067;80;20902;-80
2021/08/26 07:23:57;;;;;;;6.58;3.67;;;;;;;14.86;70.06;95734.16;1769748;80;20954;-80
2021/08/26 07:26:23;;;;;;;5.90;3.92;;;;;;;14.90;69.99;95736.61;1775884;80;20922;-81
2021/08/26 07:28:51;;;;;;;5.45;3.62;;;;;;;14.94;69.14;95745.59;1773972;80;21015;-81
2021/08/26 07:31:16;;;;;;;5.72;3.42;;;;;;;14.97;68.40;95739.14;1770079;80;20973;-80
2021/08/26 07:33:42;;;;;;;6.58;3.80;;;;;;;14.98;68.75;95745.97;1747888;80;21093;-80
2021/08/26 07:36:08;;;;;;;5.22;3.35;;;;;;;14.97;68.10;95754.33;1806325;78;21358;-81
2021/08/26 07:38:34;;;;;;;7.95;5.03;;;;;;;14.98;68.21;95748.07;1789383;79;20944;-81
2021/08/26 07:40:59;;;;;;;5.60;3.85;;;;;;;14.97;68.41;95753.02;1809808;78;21029;-81
2021/08/26 07:43:30;;;;;;;6.53;3.45;;;;;;;14.95;67.93;95745.88;1806353;78;20953;-81
2021/08/26 07:45:53;;;;;;;6.78;3.90;;;;;;;14.91;67.64;95743.44;1798451;78;20949;-80
2021/08/26 07:48:18;;;;;;;5.50;3.02;;;;;;;14.87;66.77;95744.91;1798229;78;20996;-80
2021/08/26 07:50:45;;;;;;;4.87;3.27;;;;;;;14.85;67.42;95752.19;1802950;78;21291;-81
2021/08/26 07:53:11;;;;;;;5.80;3.17;;;;;;;14.89;66.54;95745.98;1807132;78;20976;-80
2021/08/26 07:55:36;;;;;;;5.62;3.58;;;;;;;14.91;66.75;95746.05;1802833;79;20937;-81
2021/08/26 07:58:03;;;;;;;5.15;3.22;;;;;;;14.96;67.11;95743.55;1808431;78;20976;-80
2021/08/26 08:00:29;;;;;;;5.17;3.42;;;;;;;14.98;66.18;95752.00;1811130;78;20936;-80
2021/08/26 08:02:55;;;;;;;5.55;3.25;;;;;;;14.98;67.31;95756.44;1813818;78;20954;-81
2021/08/26 08:05:21;;;;;;;6.17;3.45;;;;;;;14.97;67.20;95755.63;1800052;78;20955;-81
2021/08/26 08:07:46;;;;;;;6.20;3.83;;;;;;;14.98;67.48;95753.30;1807410;78;20919;-81
2021/08/26 08:10:14;;;;;;;6.08;3.20;;;;;;;15.00;67.39;95753.08;1797017;78;21035;-81
2021/08/26 08:12:40;;;;;;;5.97;2.95;;;;;;;14.98;66.59;95745.45;1806423;79;20935;-82
2021/08/26 08:15:07;;;;;;;6.30;3.60;;;;;;;14.96;66.54;95754.52;1815145;78;20983;-82
2021/08/26 08:17:33;;;;;;;6.10;3.60;;;;;;;14.94;66.95;95761.29;1801409;78;21531;-83
2021/08/26 08:19:59;;;;;;;5.80;3.67;;;;;;;14.91;66.56;95755.20;1806250;78;20936;-82
2021/08/26 08:22:24;;;;;;;4.83;3.20;;;;;;;14.91;66.29;95758.33;1800550;78;20996;-83
2021/08/26 08:24:50;;;;;;;4.62;3.35;;;;;;;14.90;66.21;95747.58;1815462;78;21296;-83
2021/08/26 08:27:16;;;;;;;6.00;3.35;;;;;;;14.86;65.77;95743.83;1813543;78;20977;-82
2021/08/26 08:29:41;;;;;;;5.53;3.12;;;;;;;14.80;65.71;95749.94;1807673;78;20923;-83
2021/08/26 08:32:08;;;;;;;4.72;2.92;;;;;;;14.79;66.37;95754.87;1802407;78;20906;-83
2021/08/26 08:34:33;;;;;;;4.87;3.52;;;;;;;14.72;66.04;95753.67;1805028;78;21036;-83
2021/08/26 08:37:02;;;;;;;4.72;3.20;;;;;;;14.68;64.94;95748.61;1797140;78;21025;-83
2021/08/26 08:39:27;;;;;;;5.72;3.83;;;;;;;14.63;65.62;95754.99;1809165;78;20937;-82
2021/08/26 08:41:52;;;;;;;5.08;3.50;;;;;;;14.59;65.44;95746.80;1805000;78;22274;-82
2021/08/26 08:44:18;;;;;;;5.25;3.83;;;;;;;14.59;66.17;95754.64;1792807;78;20937;-83
2021/08/26 08:46:44;;;;;;;4.08;2.72;;;;;;;14.61;65.24;95753.11;1806563;78;21325;-82
2021/08/26 08:49:10;;;;;;;5.28;3.60;;;;;;;14.63;65.80;95758.41;1809821;78;21008;-83
2021/08/26 08:51:36;;;;;;;5.60;3.70;;;;;;;14.68;65.58;95758.56;1776532;79;21315;-83
2021/08/26 08:54:01;;;;;;;4.87;3.65;;;;;;;14.73;65.63;95763.11;1814935;78;20954;-83
2021/08/26 08:56:27;;;;;;;6.20;4.30;;;;;;;14.75;66.18;95768.12;1799609;78;21025;-82
2021/08/26 08:58:57;;;;;;;4.80;3.42;;;;;;;14.79;66.76;95767.44;1812656;78;21346;-82
2021/08/26 09:01:23;;;;;;;6.15;4.05;;;;;;;14.80;66.41;95765.11;1812967;78;20949;-82
2021/08/26 09:03:48;;;;;;;6.85;4.72;;;;;;;14.81;67.27;95764.63;1806632;77;20985;-82
2021/08/26 09:06:15;;;;;;;6.17;3.10;;;;;;;14.81;66.92;95771.97;1805107;78;21422;-82
2021/08/26 09:08:40;;;;;;;5.15;3.50;;;;;;;14.83;66.71;95764.69;1813686;78;21039;-83
2021/08/26 09:11:16;;;;;;;5.30;2.87;;;;;;;14.81;65.67;95770.66;1811202;78;21055;-82
2021/08/26 09:13:44;;;;;;;4.62;3.25;;;;;;;14.78;65.44;95764.54;1807867;78;20930;-82
2021/08/26 09:16:10;;;;;;;4.83;3.37;;;;;;;14.80;66.14;95768.23;1811370;78;20999;-83
2021/08/26 09:18:36;;;;;;;4.95;2.72;;;;;;;14.81;66.26;95769.86;1804852;78;21315;-82
2021/08/26 09:21:09;;;;;;;4.50;3.00;;;;;;;14.83;66.47;95767.30;1809556;79;20938;-82
2021/08/26 09:23:51;;;;;;;5.30;3.30;;;;;;;14.87;67.00;95771.58;1815182;78;20955;-83
2021/08/26 09:26:21;;;;;;;5.83;3.27;;;;;;;14.83;66.56;95768.62;1779864;79;21358;-83
2021/08/26 09:28:48;;;;;;;4.75;2.72;;;;;;;14.83;66.35;95769.92;1784664;78;21071;-82
2021/08/26 09:31:25;;;;;;;4.53;3.02;;;;;;;14.83;66.10;95769.92;1777470;78;21440;-83
2021/08/26 09:33:56;;;;;;;4.78;3.30;;;;;;;14.82;66.29;95770.95;1761120;81;20951;-83
2021/08/26 09:36:37;;;;;;;22.73;12.33;;;;;;;14.80;66.11;95773.47;1814499;78;21027;-82
2021/08/26 09:39:12;;;;;;;5.65;3.85;;;;;;;14.77;66.19;95768.69;1803900;79;21056;-83
2021/08/26 09:41:48;;;;;;;4.05;2.85;;;;;;;14.71;66.25;95758.62;1776049;79;20994;-82
2021/08/26 09:44:26;;;;;;;23.10;12.63;;;;;;;14.65;66.44;95773.90;1809972;78;21007;-83
2021/08/26 09:46:53;;;;;;;9.83;4.33;;;;;;;14.60;67.01;95774.54;1802756;78;20963;-82
2021/08/26 09:49:25;;;;;;;189.62;89.22;;;;;;;14.55;67.34;95775.72;1796653;78;21358;-82
2021/08/26 09:52:07;;;;;;;115.00;59.25;;;;;;;14.52;68.22;95781.91;1807771;78;21344;-82
2021/08/26 09:54:38;;;;;;;;;;;;;;;14.47;68.53;95781.23;1804278;79;20940;-83
2021/08/26 09:57:06;;;;;;;32.50;18.62;;;;;;;14.47;68.69;95777.83;1785398;79;20134;-83
2021/08/26 09:59:44;;;;;;;6.70;3.90;;;;;;;14.45;68.92;95778.56;1810789;78;20925;-82
2021/08/26 10:02:11;;;;;;;5.62;3.22;;;;;;;14.38;68.91;95778.11;1797034;78;21355;-82
2021/08/26 10:04:37;;;;;;;19.92;12.43;;;;;;;14.31;69.20;95773.45;1801030;78;20934;-82
2021/08/26 10:07:03;;;;;;;20.90;12.23;;;;;;;14.28;69.98;95772.59;1796094;79;20905;-82
2021/08/26 10:09:28;;;;;;;7.17;4.08;;;;;;;14.27;70.45;95772.81;1804647;79;21311;-82
2021/08/26 10:11:54;;;;;;;10.55;6.10;;;;;;;14.32;70.80;95771.67;1802715;78;20997;-82
2021/08/26 10:14:21;;;;;;;4.62;3.30;;;;;;;14.35;70.65;95764.69;1795381;78;20917;-82
2021/08/26 10:16:47;;;;;;;4.75;3.00;;;;;;;14.38;70.57;95762.94;1809982;78;20970;-82
2021/08/26 10:19:16;;;;;;;4.60;2.92;;;;;;;14.37;70.85;95772.59;1804812;78;20997;-82
2021/08/26 10:26:05;;;;;;;4.33;3.72;;;;;;;14.23;70.67;95763.83;1799679;78;21057;-82
2021/08/26 10:28:34;;;;;;;6.08;3.15;;;;;;;14.06;71.39;95763.63;1799510;78;21021;-82
2021/08/26 10:31:20;;;;;;;5.08;3.30;;;;;;;13.95;71.81;95757.81;1797691;78;21369;-82
2021/08/26 10:33:46;;;;;;;4.83;3.00;;;;;;;13.95;72.09;95754.69;1787743;79;20907;-82
2021/08/26 10:36:14;;;;;;;4.67;3.05;;;;;;;14.01;71.99;95753.04;1775697;79;20938;-82
2021/08/26 10:38:39;;;;;;;5.75;3.47;;;;;;;14.04;72.18;95748.67;1803289;78;20930;-82
2021/08/26 10:41:27;;;;;;;5.80;3.05;;;;;;;14.09;72.63;95749.61;1805404;78;21008;-82
2021/08/26 10:43:59;;;;;;;5.00;3.60;;;;;;;14.11;71.44;95751.48;1803591;79;20913;-82
2021/08/26 10:46:51;;;;;;;4.83;3.15;;;;;;;14.07;71.32;95758.69;1794996;78;20964;-82
2021/08/26 10:49:18;;;;;;;5.47;3.40;;;;;;;14.06;71.65;95747.95;1807332;77;21554;-82
2021/08/26 10:51:47;;;;;;;4.10;3.15;;;;;;;14.06;71.53;95761.01;1805132;78;20951;-82
2021/08/26 10:54:30;;;;;;;4.55;3.10;;;;;;;14.06;71.22;95759.70;1769681;80;21006;-82
2021/08/26 10:56:58;;;;;;;4.60;3.37;;;;;;;14.08;71.68;95748.52;1768631;80;20959;-82
2021/08/26 10:59:32;;;;;;;4.28;2.95;;;;;;;14.12;71.27;95746.55;1768997;80;20994;-82
2021/08/26 11:01:58;;;;;;;4.62;3.77;;;;;;;14.19;71.22;95741.27;1743652;80;21015;-82
2021/08/26 11:04:34;;;;;;;5.58;3.42;;;;;;;14.30;71.21;95739.20;1734170;80;21364;-83
2021/08/26 11:06:59;;;;;;;5.15;3.70;;;;;;;14.36;70.79;95735.73;1747636;80;21327;-82
2021/08/26 11:09:29;;;;;;;5.12;3.37;;;;;;;14.46;70.94;95734.41;1759012;81;21138;-82
2021/08/26 11:11:59;;;;;;;4.08;3.12;;;;;;;14.51;70.72;95735.36;1793715;78;22116;-82
2021/08/26 11:14:27;;;;;;;4.45;2.95;;;;;;;14.57;69.77;95729.75;1769327;80;21107;-82
2021/08/26 11:16:55;;;;;;;5.33;3.87;;;;;;;14.62;69.73;95733.79;1755601;81;20947;-82
2021/08/26 11:19:28;;;;;;;4.95;3.70;;;;;;;14.63;69.75;95731.46;1764615;80;20938;-82
2021/08/26 11:22:00;;;;;;;4.62;3.35;;;;;;;14.66;69.50;95738.89;1768586;80;20963;-82
2021/08/26 11:24:32;;;;;;;5.92;3.52;;;;;;;14.66;69.17;95738.38;1806842;78;20996;-83
2021/08/26 11:27:19;;;;;;;6.78;3.35;;;;;;;14.62;69.32;95740.33;1807731;78;22373;-82
2021/08/26 11:29:45;;;;;;;5.53;3.65;;;;;;;14.55;69.53;95736.51;1807890;78;20953;-82
2021/08/26 11:32:14;;;;;;;5.95;4.10;;;;;;;14.54;69.50;95733.61;1805928;78;20945;-82
2021/08/26 11:34:43;;;;;;;4.45;3.00;;;;;;;14.54;69.49;95724.97;1804931;78;20948;-82
2021/08/26 11:37:19;;;;;;;4.85;4.00;;;;;;;14.57;69.62;95727.93;1813350;78;20969;-82
2021/08/26 11:40:04;;;;;;;5.35;3.62;;;;;;;14.55;69.51;95729.97;1800801;78;21241;-82
2021/08/26 11:42:48;;;;;;;5.17;3.67;;;;;;;14.51;69.75;95734.56;1806072;79;21300;-82
2021/08/26 11:45:25;;;;;;;4.72;3.33;;;;;;;14.45;69.67;95734.92;1786126;79;20930;-82